Estherville, IA

9:49 AM CDT on July 05, 2015 (GMT -0500)
Estherville Municipal | | Change Station
CLOSE
Current Station
Airport
Location: Estherville,
Elevation: 1316 ft
Nearby Weather Stations

Elev 1316 ft 43.40 °N, 94.75 °W | Updated 57 minutes ago

Mostly Cloudy
Mostly Cloudy
65 °F
Feels Like 65 °F
N
10
Wind Variable Wind from South

Today
High -- | Low -- °F
--% Chance of Precip.
Yesterday
High -- | Low -- °F
Precip. -- in
5:44 AM 9:02 PM
Waning Gibbous, 84% visible
Pressure 29.95 in
Visibility 8.0 miles
Clouds Mostly Cloudy 7000 ft
Dew Point 62 °F
Humidity 90%
Rainfall 0.00 in
Snow Depth Not available.
UV 2 out of 12
Pollen 6.10 out of 12
Air Quality Not available.
Flu Activity Not available.
METAR KEST 051352Z AUTO 19009KT 8SM BKN070 18/17 A2997 RMK AO2 SLP142 T01830167

More Conditions Fewer Conditions

Pressure 29.95 in
Visibility 8.0 miles
Clouds Mostly Cloudy 7000 ft
Dew Point 62 °F
Humidity 90%
Rainfall 0.00 in
Snow Depth Not available.
UV 2 out of 12
Pollen 6.10 out of 12
Air Quality Not available.
Flu Activity Not available.
METAR KEST 051352Z AUTO 19009KT 8SM BKN070 18/17 A2997 RMK AO2 SLP142 T01830167

More Conditions Fewer Conditions

10-Day Weather Forecast

×

Almanac

Astronomy

Jul. 05, 2015 Rise Set
Actual Time
Civil Twilight
Nautical Twilight
Astronomical Twilight
Moon
Length of Visible Light
Length of Day
Tomorrow will be .
, % of the Moon is Illuminated

Today's Extremes

State Highs State Lows

Community

WunderPhotos

Upload Photos

1,835,278 photos uploaded!

WunderBlogs® & News

Nearby

Air Quality

  Air Quality AQ Index Pollutant
Not available.

Snow Depth

Station Depth Elevation

Earthquake Activity

City Distance Mag. Time & Date
Minimum magnitude displayed is 2.5.

Coastal Water Temperatures

Place Temperature

Stations

Nearby Weather Stations

Station Location Temp. Windchill Dew Point Humidity Wind Precip. Elev Updated Type